Time;durP1;ratioP1;P1;durP2;ratioP2;P2;SDS_P1;SDS_P2;PMS_P1;PMS_P2;Temp;Humidity;BMP_temperature;BMP_pressure;BME280_temperature;BME280_humidity;BME280_pressure;Samples;Min_cycle;Max_cycle;Signal;HPM_P1;HPM_P2
2022/10/14 00:01:24;;;;;;;23.63;21.15;;;11.90;99.90;;;;;;5014607;28;20203;-84
2022/10/14 00:03:54;;;;;;;26.70;23.85;;;11.90;99.90;;;;;;5014229;28;20206;-84
2022/10/14 00:06:24;;;;;;;27.05;23.15;;;11.90;99.90;;;;;;5014333;28;20203;-83
2022/10/14 00:08:53;;;;;;;36.25;27.02;;;11.90;99.90;;;;;;5014034;28;20234;-84
2022/10/14 00:11:22;;;;;;;28.02;23.48;;;11.90;99.90;;;;;;5013985;28;20218;-85
2022/10/14 00:13:55;;;;;;;23.58;21.17;;;11.90;99.90;;;;;;5014092;28;20223;-84
2022/10/14 00:16:25;;;;;;;31.52;25.85;;;11.90;99.90;;;;;;5013641;28;20203;-84
2022/10/14 00:18:53;;;;;;;32.67;26.20;;;11.90;99.90;;;;;;5014113;28;20203;-84
2022/10/14 00:21:23;;;;;;;30.48;23.50;;;11.90;99.90;;;;;;5014153;28;20206;-85
2022/10/14 00:23:51;;;;;;;27.73;23.50;;;11.90;99.90;;;;;;5013827;28;20199;-84
2022/10/14 00:26:21;;;;;;;25.45;22.80;;;11.90;99.90;;;;;;5013659;28;20207;-84
2022/10/14 00:28:50;;;;;;;24.98;22.30;;;11.90;99.90;;;;;;5013317;28;20218;-84
2022/10/14 00:31:20;;;;;;;29.75;25.10;;;11.80;99.90;;;;;;5013405;28;20273;-84
2022/10/14 00:33:49;;;;;;;26.20;23.60;;;11.90;99.90;;;;;;5013688;28;20238;-84
2022/10/14 00:36:19;;;;;;;28.10;23.45;;;11.80;99.90;;;;;;5007220;28;20207;-84
2022/10/14 00:38:48;;;;;;;27.52;24.63;;;11.80;99.90;;;;;;4997807;28;20223;-84
2022/10/14 00:41:19;;;;;;;26.70;22.63;;;11.80;99.90;;;;;;5013186;28;20211;-84
2022/10/14 00:44:00;;;;;;;28.85;24.25;;;11.80;99.90;;;;;;5013817;28;20207;-84
2022/10/14 00:46:31;;;;;;;28.52;24.15;;;11.70;99.90;;;;;;5013147;28;20206;-84
2022/10/14 00:49:03;;;;;;;31.45;25.77;;;11.80;99.90;;;;;;5013506;28;20199;-84
2022/10/14 00:51:31;;;;;;;29.58;26.45;;;11.80;99.90;;;;;;5013602;28;20203;-84
2022/10/14 00:54:00;;;;;;;36.00;26.88;;;11.80;99.90;;;;;;5012067;28;20223;-84
2022/10/14 00:56:29;;;;;;;45.33;28.85;;;11.80;99.90;;;;;;5013307;28;20218;-84
2022/10/14 00:59:00;;;;;;;35.08;28.55;;;11.70;99.90;;;;;;5013553;28;20294;-84
2022/10/14 01:01:30;;;;;;;36.88;30.33;;;11.70;99.90;;;;;;5013374;28;20203;-84
2022/10/14 01:03:58;;;;;;;36.35;29.98;;;11.70;99.90;;;;;;5013454;28;20207;-84
2022/10/14 01:06:41;;;;;;;50.38;30.05;;;11.70;99.90;;;;;;4999373;28;20262;-84
2022/10/14 01:09:20;;;;;;;49.67;30.73;;;11.70;99.90;;;;;;5008295;28;20203;-84
2022/10/14 01:11:59;;;;;;;37.30;31.40;;;11.80;99.90;;;;;;5012627;28;20199;-84
2022/10/14 01:14:58;;;;;;;45.33;31.75;;;11.70;99.90;;;;;;5012675;28;20276;-84
2022/10/14 01:17:40;;;;;;;39.55;31.13;;;11.70;99.90;;;;;;5012767;28;20223;-84
2022/10/14 01:20:26;;;;;;;48.58;33.75;;;11.70;99.90;;;;;;5012721;28;20206;-84
2022/10/14 01:23:08;;;;;;;46.60;36.13;;;11.70;99.90;;;;;;5011881;28;20202;-84
2022/10/14 01:25:52;;;;;;;43.92;35.15;;;11.60;99.90;;;;;;5012897;28;20209;-84
2022/10/14 01:28:27;;;;;;;46.70;36.15;;;11.60;99.90;;;;;;5013031;28;20256;-84
2022/10/14 01:31:01;;;;;;;50.35;37.33;;;11.60;99.90;;;;;;5013055;28;20207;-84
2022/10/14 01:33:36;;;;;;;54.42;36.22;;;11.60;99.90;;;;;;5012505;28;20222;-84
2022/10/14 01:36:11;;;;;;;64.97;35.85;;;11.50;99.90;;;;;;5012484;28;20202;-84
2022/10/14 01:38:44;;;;;;;49.92;35.78;;;11.50;99.90;;;;;;5008198;28;20230;-84
2022/10/14 01:41:18;;;;;;;44.28;35.03;;;11.50;99.90;;;;;;5012745;28;20218;-85
2022/10/14 01:43:49;;;;;;;53.53;37.05;;;11.40;99.90;;;;;;5012619;28;20199;-84
2022/10/14 01:46:22;;;;;;;47.35;35.60;;;11.40;99.90;;;;;;5012491;28;20203;-85
2022/10/14 01:48:54;;;;;;;45.95;36.90;;;11.40;99.90;;;;;;5012220;28;20229;-84
2022/10/14 01:51:27;;;;;;;46.53;36.00;;;11.40;99.90;;;;;;5012549;28;20210;-84
2022/10/14 01:53:57;;;;;;;43.90;34.30;;;11.30;99.90;;;;;;5012263;28;20229;-84
2022/10/14 01:56:28;;;;;;;45.15;36.38;;;11.30;99.90;;;;;;5012533;28;20291;-84
2022/10/14 01:58:58;;;;;;;57.33;35.08;;;11.30;99.90;;;;;;5012419;28;20206;-84
2022/10/14 02:01:28;;;;;;;46.65;35.45;;;11.30;99.90;;;;;;5012566;28;20214;-84
2022/10/14 02:03:56;;;;;;;45.22;33.67;;;11.30;99.90;;;;;;5012543;28;20199;-84
2022/10/14 02:06:30;;;;;;;51.55;33.58;;;11.30;99.90;;;;;;5012747;28;20206;-84
2022/10/14 02:09:09;;;;;;;42.25;34.00;;;11.20;99.90;;;;;;5012372;28;20214;-84
2022/10/14 02:11:44;;;;;;;43.08;34.85;;;11.20;99.90;;;;;;5011825;28;20206;-84
2022/10/14 02:14:24;;;;;;;42.40;34.60;;;11.20;99.90;;;;;;5012461;28;20233;-84
2022/10/14 02:17:02;;;;;;;43.55;33.55;;;11.20;99.90;;;;;;5012179;28;20241;-84
2022/10/14 02:19:38;;;;;;;42.92;34.33;;;11.20;99.90;;;;;;4992928;28;20207;-84
2022/10/14 02:22:12;;;;;;;39.90;32.78;;;11.20;99.90;;;;;;5013709;28;20199;-84
2022/10/14 02:24:44;;;;;;;43.92;33.45;;;11.20;99.90;;;;;;5016499;28;20207;-85
2022/10/14 02:27:16;;;;;;;47.17;35.17;;;11.20;99.90;;;;;;5015722;28;20223;-83
2022/10/14 02:29:47;;;;;;;47.33;34.47;;;11.20;99.90;;;;;;5016019;28;20214;-83
2022/10/14 02:32:20;;;;;;;44.58;33.80;;;11.30;99.90;;;;;;5015686;28;20222;-84
2022/10/14 02:34:53;;;;;;;48.38;36.33;;;11.30;99.90;;;;;;5016360;28;20247;-84
2022/10/14 02:37:22;;;;;;;43.58;34.45;;;11.40;99.90;;;;;;5015931;28;20231;-83
2022/10/14 02:39:57;;;;;;;64.70;37.55;;;11.40;99.90;;;;;;4999624;28;20220;-84
2022/10/14 02:42:27;;;;;;;48.33;35.28;;;11.40;99.90;;;;;;5012778;28;20209;-84
2022/10/14 02:44:58;;;;;;;55.53;35.40;;;11.40;99.90;;;;;;4996259;28;20212;-84
2022/10/14 02:47:28;;;;;;;55.10;35.35;;;11.40;99.90;;;;;;5016013;28;20230;-84
2022/10/14 02:49:57;;;;;;;46.75;35.33;;;11.40;99.90;;;;;;5015237;28;20214;-84
2022/10/14 02:52:25;;;;;;;44.47;32.95;;;11.40;99.90;;;;;;5015058;28;20195;-84
2022/10/14 02:54:53;;;;;;;46.90;32.38;;;11.30;99.90;;;;;;5015671;28;20219;-84
2022/10/14 02:57:21;;;;;;;40.58;31.83;;;11.30;99.90;;;;;;5015274;28;20227;-85
2022/10/14 02:59:49;;;;;;;36.15;31.88;;;11.30;99.90;;;;;;5016653;28;20222;-83
2022/10/14 03:02:18;;;;;;;56.25;36.30;;;11.40;99.90;;;;;;5016421;28;20210;-83
2022/10/14 03:04:48;;;;;;;53.75;31.92;;;11.30;99.90;;;;;;5016149;28;20199;-83
2022/10/14 03:07:16;;;;;;;42.08;33.63;;;11.30;99.90;;;;;;5016127;28;20219;-84
2022/10/14 03:09:44;;;;;;;45.72;32.33;;;11.30;99.90;;;;;;5015460;28;20207;-84
2022/10/14 03:12:13;;;;;;;38.85;31.60;;;11.30;99.90;;;;;;5016097;28;20206;-83
2022/10/14 03:14:41;;;;;;;42.35;31.45;;;11.30;99.90;;;;;;5016666;28;20226;-83
2022/10/14 03:17:10;;;;;;;41.80;30.58;;;11.40;99.90;;;;;;5016311;28;20226;-83
2022/10/14 03:19:38;;;;;;;32.88;27.65;;;11.30;99.90;;;;;;5016221;28;20219;-84
2022/10/14 03:22:08;;;;;;;46.13;30.55;;;11.40;99.90;;;;;;5015172;28;20203;-83
2022/10/14 03:24:36;;;;;;;42.13;30.92;;;11.40;99.90;;;;;;5016266;28;20202;-84
2022/10/14 03:27:05;;;;;;;41.08;30.63;;;11.40;99.90;;;;;;5016036;28;20231;-84
2022/10/14 03:29:33;;;;;;;37.20;30.02;;;11.40;99.90;;;;;;5015632;28;20214;-84
2022/10/14 03:32:01;;;;;;;36.80;29.52;;;11.40;99.90;;;;;;5015898;28;20214;-84
2022/10/14 03:34:29;;;;;;;43.13;29.80;;;11.40;99.90;;;;;;5015436;28;20230;-84
2022/10/14 03:36:57;;;;;;;47.25;30.30;;;11.50;99.90;;;;;;5015489;28;20223;-84
2022/10/14 03:39:27;;;;;;;32.78;28.83;;;11.50;99.90;;;;;;5016044;28;20214;-84
2022/10/14 03:41:55;;;;;;;31.58;26.90;;;11.50;99.90;;;;;;5015122;28;20330;-84
2022/10/14 03:44:23;;;;;;;31.67;27.70;;;11.50;99.90;;;;;;5015369;28;20203;-83
2022/10/14 03:46:51;;;;;;;40.88;26.35;;;11.60;99.90;;;;;;5015502;28;20230;-84
2022/10/14 03:49:20;;;;;;;37.25;28.67;;;11.60;99.90;;;;;;5015428;28;20211;-83
2022/10/14 03:51:48;;;;;;;42.95;28.20;;;11.60;99.90;;;;;;5015331;28;20206;-83
2022/10/14 03:54:16;;;;;;;28.02;24.63;;;11.60;99.90;;;;;;5015928;28;20227;-83
2022/10/14 03:56:46;;;;;;;29.45;26.30;;;11.60;99.90;;;;;;5015124;28;20200;-84
2022/10/14 03:59:14;;;;;;;35.25;27.20;;;11.60;99.90;;;;;;5015286;28;20287;-83
2022/10/14 04:01:42;;;;;;;49.60;30.10;;;11.60;99.90;;;;;;5015068;28;20207;-83
2022/10/14 04:04:11;;;;;;;32.15;27.33;;;11.60;99.90;;;;;;5015297;28;20211;-84
2022/10/14 04:06:39;;;;;;;34.17;27.73;;;11.60;99.90;;;;;;5014735;28;20203;-84
2022/10/14 04:09:11;;;;;;;36.08;25.33;;;11.60;99.90;;;;;;5015400;28;20199;-83
2022/10/14 04:11:39;;;;;;;33.33;27.38;;;11.60;99.90;;;;;;5015026;28;20215;-84
2022/10/14 04:14:08;;;;;;;30.10;24.83;;;11.70;99.90;;;;;;5010902;28;20200;-84
2022/10/14 04:16:37;;;;;;;35.83;27.00;;;11.70;99.90;;;;;;5011436;28;20254;-87
2022/10/14 04:19:05;;;;;;;33.92;26.05;;;11.70;99.90;;;;;;5015043;28;20215;-84
2022/10/14 04:21:35;;;;;;;32.22;25.15;;;11.70;99.90;;;;;;5014070;28;20222;-84
2022/10/14 04:24:04;;;;;;;32.85;25.33;;;11.70;99.90;;;;;;4995655;28;20208;-84
2022/10/14 04:26:35;;;;;;;33.53;25.30;;;11.70;99.90;;;;;;4995296;28;20234;-83
2022/10/14 04:29:04;;;;;;;32.10;25.17;;;11.80;99.90;;;;;;4994714;28;20215;-84
2022/10/14 04:31:33;;;;;;;40.58;25.10;;;11.80;99.90;;;;;;4995651;28;20215;-83
2022/10/14 04:34:02;;;;;;;30.55;23.88;;;11.80;99.90;;;;;;4995472;28;20212;-84
2022/10/14 04:36:30;;;;;;;26.80;22.92;;;11.80;99.90;;;;;;5017055;28;20229;-83
2022/10/14 04:38:58;;;;;;;30.25;23.95;;;11.80;99.90;;;;;;5034566;28;20211;-84
2022/10/14 04:41:27;;;;;;;35.45;24.23;;;11.80;99.90;;;;;;5034432;28;20218;-84
2022/10/14 04:43:55;;;;;;;27.10;24.05;;;11.80;99.90;;;;;;5034100;28;20221;-84
2022/10/14 04:46:24;;;;;;;33.75;22.65;;;11.80;99.90;;;;;;5034641;28;20218;-84
2022/10/14 04:48:53;;;;;;;28.15;25.05;;;11.80;99.90;;;;;;5017240;28;20230;-85
2022/10/14 04:51:21;;;;;;;22.63;20.38;;;11.80;99.90;;;;;;5008375;28;20210;-85
2022/10/14 04:53:49;;;;;;;36.97;24.00;;;11.80;99.90;;;;;;5014580;28;20211;-84
2022/10/14 04:56:18;;;;;;;30.33;23.13;;;11.80;99.90;;;;;;5014146;28;20223;-84
2022/10/14 04:58:46;;;;;;;26.67;22.92;;;11.80;99.90;;;;;;5014424;28;20234;-85
2022/10/14 05:01:14;;;;;;;23.23;20.75;;;11.80;99.90;;;;;;5014226;28;20206;-84
2022/10/14 05:03:43;;;;;;;32.00;21.77;;;11.80;99.90;;;;;;5014408;28;20211;-84
2022/10/14 05:06:12;;;;;;;23.60;19.63;;;11.80;99.90;;;;;;5013684;28;20195;-83
2022/10/14 05:08:41;;;;;;;21.88;19.67;;;11.90;99.90;;;;;;5013943;28;20234;-83
2022/10/14 05:11:09;;;;;;;26.80;20.35;;;11.80;99.90;;;;;;5014078;28;20199;-83
2022/10/14 05:13:37;;;;;;;28.65;21.05;;;11.80;99.90;;;;;;5014352;28;20207;-83
2022/10/14 05:16:06;;;;;;;21.17;18.98;;;11.80;99.90;;;;;;4994409;28;20227;-84
2022/10/14 05:18:35;;;;;;;24.33;21.75;;;11.90;99.90;;;;;;5010333;28;20227;-84
2022/10/14 05:21:03;;;;;;;27.33;22.55;;;11.90;99.90;;;;;;5013567;28;20210;-84
2022/10/14 05:23:33;;;;;;;23.55;20.52;;;11.80;99.90;;;;;;5013759;28;20206;-83
2022/10/14 05:26:01;;;;;;;29.00;22.85;;;11.90;99.90;;;;;;5013818;28;20207;-84
2022/10/14 05:28:29;;;;;;;24.00;20.85;;;11.80;99.90;;;;;;5013641;28;20234;-84
2022/10/14 05:30:58;;;;;;;25.67;21.05;;;11.80;99.90;;;;;;5013904;28;20210;-84
2022/10/14 05:33:26;;;;;;;26.50;22.38;;;11.90;99.90;;;;;;5013957;28;20217;-84
2022/10/14 05:35:54;;;;;;;27.88;21.80;;;11.90;99.90;;;;;;5013182;28;20277;-84
2022/10/14 05:38:27;;;;;;;20.63;18.63;;;11.90;99.90;;;;;;5013615;28;20302;-84
2022/10/14 05:40:57;;;;;;;18.63;16.67;;;11.90;99.90;;;;;;5010647;28;20214;-84
2022/10/14 05:43:26;;;;;;;21.00;18.73;;;11.90;99.90;;;;;;5013536;28;20218;-84
2022/10/14 05:46:00;;;;;;;19.23;17.30;;;11.90;99.90;;;;;;5013388;28;20226;-84
2022/10/14 05:48:28;;;;;;;30.63;17.60;;;11.90;99.90;;;;;;5007620;28;20220;-84
2022/10/14 05:51:00;;;;;;;21.65;17.83;;;12.00;99.90;;;;;;5008640;28;20208;-84
2022/10/14 05:53:29;;;;;;;17.67;15.88;;;11.90;99.90;;;;;;5013781;28;20298;-85
2022/10/14 05:56:04;;;;;;;17.67;16.08;;;12.00;99.90;;;;;;5012455;28;20215;-85
2022/10/14 05:58:32;;;;;;;17.95;16.08;;;12.00;99.90;;;;;;5012883;28;20222;-84
2022/10/14 06:01:02;;;;;;;19.83;17.85;;;11.90;99.90;;;;;;5013344;28;20212;-85
2022/10/14 06:03:30;;;;;;;20.25;17.58;;;12.00;99.90;;;;;;5013433;28;20207;-84
2022/10/14 06:05:59;;;;;;;19.52;17.52;;;12.00;99.90;;;;;;5013977;28;20210;-84
2022/10/14 06:08:27;;;;;;;24.05;20.08;;;12.00;99.90;;;;;;5012858;28;20218;-84
2022/10/14 06:10:56;;;;;;;19.63;17.73;;;12.00;99.90;;;;;;5013383;28;20214;-84
2022/10/14 06:13:25;;;;;;;20.35;18.30;;;11.90;99.90;;;;;;5012990;28;20215;-83
2022/10/14 06:15:53;;;;;;;23.10;19.67;;;12.00;99.90;;;;;;4997755;28;20219;-83
2022/10/14 06:18:23;;;;;;;22.02;19.83;;;12.00;99.90;;;;;;5023827;28;20225;-83
2022/10/14 06:20:52;;;;;;;21.90;18.30;;;12.00;99.90;;;;;;5032911;28;20206;-83
2022/10/14 06:23:21;;;;;;;26.42;17.73;;;11.90;99.90;;;;;;5032922;28;20210;-83
2022/10/14 06:25:49;;;;;;;20.40;18.48;;;11.80;99.90;;;;;;5027286;28;20206;-83
2022/10/14 06:28:17;;;;;;;20.60;18.35;;;11.70;99.90;;;;;;5013183;28;20224;-84
2022/10/14 06:30:51;;;;;;;21.05;18.95;;;11.60;99.90;;;;;;5012649;28;20219;-83
2022/10/14 06:33:20;;;;;;;28.80;20.33;;;11.50;99.90;;;;;;5012712;28;20218;-84
2022/10/14 06:35:48;;;;;;;20.67;18.67;;;11.40;99.90;;;;;;5012430;28;20215;-84
2022/10/14 06:38:28;;;;;;;19.83;17.88;;;11.40;99.90;;;;;;5001597;28;20215;-83
2022/10/14 06:40:56;;;;;;;21.10;18.98;;;11.40;99.90;;;;;;5013082;28;20215;-84
2022/10/14 06:43:25;;;;;;;20.75;18.90;;;11.40;99.90;;;;;;5012843;28;20204;-83
2022/10/14 06:45:59;;;;;;;20.17;18.17;;;11.40;99.90;;;;;;5013405;28;20260;-83
2022/10/14 06:48:27;;;;;;;22.10;20.10;;;11.40;99.90;;;;;;5012526;28;20226;-85
2022/10/14 06:50:58;;;;;;;24.05;21.30;;;11.40;99.90;;;;;;5012105;28;20212;-84
2022/10/14 06:53:26;;;;;;;22.65;20.27;;;11.40;99.90;;;;;;4993378;28;20208;-83
2022/10/14 06:55:59;;;;;;;23.25;21.05;;;11.40;99.90;;;;;;4999415;28;20218;-84
2022/10/14 06:58:28;;;;;;;23.77;21.33;;;11.50;99.90;;;;;;5011352;28;20234;-83
2022/10/14 07:01:02;;;;;;;22.70;20.60;;;11.60;99.90;;;;;;5012589;28;20223;-85
2022/10/14 07:03:30;;;;;;;24.15;21.35;;;11.60;99.90;;;;;;5012816;28;20206;-86
2022/10/14 07:05:58;;;;;;;24.48;22.02;;;11.60;99.90;;;;;;5013755;28;20210;-85
2022/10/14 07:08:31;;;;;;;24.15;21.70;;;11.60;99.90;;;;;;5015819;28;20215;-87
2022/10/14 07:10:59;;;;;;;27.08;23.92;;;11.60;99.90;;;;;;5016037;28;20207;-86
2022/10/14 07:13:28;;;;;;;26.58;23.83;;;11.60;99.90;;;;;;5016821;28;20207;-87
2022/10/14 07:15:58;;;;;;;26.40;23.67;;;11.70;99.90;;;;;;5015840;28;20213;-86
2022/10/14 07:18:26;;;;;;;27.95;24.98;;;11.70;99.90;;;;;;5015876;28;20246;-87
2022/10/14 07:20:55;;;;;;;25.02;22.38;;;11.80;99.90;;;;;;5015886;28;20206;-86
2022/10/14 07:23:23;;;;;;;24.35;21.88;;;11.80;99.90;;;;;;5016083;28;20203;-86
2022/10/14 07:25:51;;;;;;;26.02;23.35;;;11.80;99.90;;;;;;4998262;28;20215;-87
2022/10/14 07:28:19;;;;;;;24.90;22.55;;;11.80;99.90;;;;;;4996679;28;20232;-87
2022/10/14 07:30:58;;;;;;;26.00;23.17;;;11.80;99.90;;;;;;5008744;28;20238;-87
2022/10/14 07:33:32;;;;;;;28.38;25.45;;;11.90;99.90;;;;;;5015691;28;20307;-87
2022/10/14 07:36:01;;;;;;;26.70;24.05;;;11.90;99.90;;;;;;5015813;28;20207;-86
2022/10/14 07:38:30;;;;;;;26.98;24.48;;;12.00;99.90;;;;;;5011082;28;20224;-86
2022/10/14 07:41:00;;;;;;;25.80;23.13;;;12.00;99.90;;;;;;5015378;28;20214;-86
2022/10/14 07:43:29;;;;;;;26.60;23.92;;;12.00;99.90;;;;;;5015932;28;20265;-85
2022/10/14 07:46:01;;;;;;;29.67;24.67;;;12.00;99.90;;;;;;5015921;28;20215;-87
2022/10/14 07:48:31;;;;;;;27.20;24.00;;;12.10;99.90;;;;;;5015623;28;20227;-88
2022/10/14 07:51:19;;;;;;;23.90;21.50;;;12.10;99.90;;;;;;5019626;28;20194;-86
2022/10/14 07:53:49;;;;;;;25.23;22.08;;;12.20;99.90;;;;;;5031346;28;20206;-86
2022/10/14 07:56:17;;;;;;;22.80;20.52;;;12.30;99.90;;;;;;5026713;28;20211;-85
2022/10/14 07:58:50;;;;;;;23.73;21.27;;;12.30;99.90;;;;;;5015321;28;20227;-86
2022/10/14 08:01:23;;;;;;;25.05;22.65;;;12.30;99.90;;;;;;5015301;28;20203;-85
2022/10/14 08:03:52;;;;;;;30.65;25.88;;;12.30;99.90;;;;;;5015758;28;20203;-85
2022/10/14 08:06:23;;;;;;;30.15;27.15;;;12.40;99.90;;;;;;5015000;28;20282;-85
2022/10/14 08:08:57;;;;;;;28.92;25.98;;;12.40;99.90;;;;;;5014540;28;20249;-85
2022/10/14 08:11:28;;;;;;;28.88;26.05;;;12.50;99.90;;;;;;5014815;28;20195;-86
2022/10/14 08:13:57;;;;;;;31.55;27.02;;;12.50;99.90;;;;;;5015201;28;20218;-85
2022/10/14 08:16:29;;;;;;;30.70;27.50;;;12.50;99.90;;;;;;5014778;28;20206;-85
2022/10/14 08:18:59;;;;;;;29.65;26.70;;;12.60;99.90;;;;;;5014322;28;20207;-85
2022/10/14 08:21:28;;;;;;;31.65;26.58;;;12.60;99.90;;;;;;5015323;28;20203;-86
2022/10/14 08:23:56;;;;;;;28.88;25.85;;;12.60;99.90;;;;;;5014811;28;20207;-85
2022/10/14 08:26:30;;;;;;;28.30;25.60;;;12.70;99.90;;;;;;5014755;28;20203;-86
2022/10/14 08:29:00;;;;;;;40.72;28.45;;;12.70;99.90;;;;;;5014826;28;20206;-85
2022/10/14 08:31:30;;;;;;;30.80;27.60;;;12.80;99.90;;;;;;5014042;28;20205;-85
2022/10/14 08:33:59;;;;;;;27.80;24.88;;;12.70;99.90;;;;;;5012192;28;20237;-86
2022/10/14 08:36:27;;;;;;;25.52;23.23;;;12.60;99.90;;;;;;5014566;28;20211;-86
2022/10/14 08:38:55;;;;;;;28.10;25.05;;;12.60;99.90;;;;;;5014875;28;20210;-86
2022/10/14 08:42:03;;;;;;;28.05;24.88;;;12.60;99.90;;;;;;5014707;28;20226;-85
2022/10/14 08:44:42;;;;;;;27.60;24.95;;;12.60;99.90;;;;;;4995097;28;20211;-85
2022/10/14 08:47:14;;;;;;;29.88;26.58;;;12.60;99.90;;;;;;5013544;28;20226;-85
2022/10/14 08:49:54;;;;;;;29.48;26.40;;;12.70;99.90;;;;;;5014352;28;20219;-85
2022/10/14 08:52:30;;;;;;;29.80;27.00;;;12.70;99.90;;;;;;5014642;28;20206;-83
2022/10/14 08:55:14;;;;;;;32.92;28.83;;;12.80;99.90;;;;;;5014480;28;20210;-84
2022/10/14 08:57:50;;;;;;;31.98;29.08;;;12.90;99.90;;;;;;5023688;28;20276;-85
2022/10/14 09:00:20;;;;;;;30.23;27.17;;;13.00;99.90;;;;;;5033978;28;20199;-85
2022/10/14 09:02:51;;;;;;;47.13;29.52;;;13.10;99.90;;;;;;4994731;28;20311;-85
2022/10/14 09:05:23;;;;;;;36.90;29.35;;;13.20;99.90;;;;;;4993044;28;20297;-84
2022/10/14 09:07:55;;;;;;;32.90;29.50;;;13.30;99.90;;;;;;5001188;28;20239;-85
2022/10/14 09:10:29;;;;;;;36.88;32.95;;;13.40;99.90;;;;;;5012741;28;20218;-85
2022/10/14 09:13:09;;;;;;;32.88;29.48;;;13.40;99.90;;;;;;5008672;28;20214;-85
2022/10/14 09:15:40;;;;;;;36.83;27.58;;;13.50;99.90;;;;;;5014143;28;20226;-85
2022/10/14 09:18:19;;;;;;;29.70;26.55;;;13.60;99.90;;;;;;5014367;28;20235;-85
2022/10/14 09:20:48;;;;;;;30.48;27.27;;;13.60;99.90;;;;;;5013922;28;20204;-84
2022/10/14 09:23:19;;;;;;;31.83;27.33;;;13.70;99.90;;;;;;5007981;28;20204;-85
2022/10/14 09:25:55;;;;;;;32.47;29.33;;;13.70;99.90;;;;;;4994707;28;20212;-85
2022/10/14 09:28:29;;;;;;;30.00;26.98;;;13.80;99.90;;;;;;4995910;28;20231;-85
2022/10/14 09:30:58;;;;;;;30.02;26.92;;;13.80;99.90;;;;;;5013926;28;20210;-85
2022/10/14 09:33:28;;;;;;;32.63;27.98;;;13.80;99.90;;;;;;5013707;28;20207;-85
2022/10/14 09:35:57;;;;;;;37.70;27.10;;;13.80;99.90;;;;;;5014033;28;20222;-85
2022/10/14 09:38:29;;;;;;;30.77;24.42;;;13.90;99.90;;;;;;5013208;28;20223;-85
2022/10/14 09:41:00;;;;;;;26.67;23.83;;;13.90;99.90;;;;;;5013883;28;20218;-85
2022/10/14 09:43:28;;;;;;;29.38;23.73;;;13.90;99.90;;;;;;5013562;28;20218;-85
2022/10/14 09:45:59;;;;;;;25.02;22.63;;;14.00;99.90;;;;;;5013804;28;20207;-85
2022/10/14 09:48:37;;;;;;;31.83;24.42;;;14.00;99.90;;;;;;5013261;28;20302;-85
2022/10/14 09:51:08;;;;;;;21.77;19.77;;;14.10;99.90;;;;;;5013405;28;20198;-85
2022/10/14 09:53:41;;;;;;;26.70;21.80;;;14.10;99.90;;;;;;5017450;28;20244;-85
2022/10/14 09:56:10;;;;;;;21.67;19.50;;;14.10;99.90;;;;;;5024262;28;20241;-83
2022/10/14 09:58:43;;;;;;;21.95;19.85;;;14.20;99.90;;;;;;5024779;28;20223;-84
2022/10/14 10:01:17;;;;;;;19.52;17.25;;;14.30;99.90;;;;;;5028490;28;20194;-85
2022/10/14 10:03:48;;;;;;;22.70;19.08;;;14.30;99.90;;;;;;5020047;28;20207;-83
2022/10/14 10:06:20;;;;;;;29.17;18.75;;;14.40;99.90;;;;;;5006919;28;20203;-83
2022/10/14 10:08:59;;;;;;;19.45;17.40;;;14.40;99.90;;;;;;5013391;28;20230;-83
2022/10/14 10:11:29;;;;;;;18.60;16.85;;;14.40;99.90;;;;;;5013299;28;20253;-84
2022/10/14 10:13:57;;;;;;;18.05;16.33;;;14.40;99.90;;;;;;5013028;28;20233;-84
2022/10/14 10:16:30;;;;;;;18.27;16.48;;;14.40;99.90;;;;;;5012967;28;20210;-84
2022/10/14 10:19:26;;;;;;;19.83;17.52;;;14.40;99.90;;;;;;5012775;28;20230;-83
2022/10/14 10:21:55;;;;;;;19.40;16.75;;;14.30;99.90;;;;;;5013201;28;20210;-84
2022/10/14 10:24:24;;;;;;;18.63;16.77;;;14.30;99.90;;;;;;5013007;28;20214;-79
2022/10/14 10:26:57;;;;;;;24.83;15.80;;;14.30;99.90;;;;;;5013232;28;20227;-89
2022/10/14 10:29:31;;;;;;;16.67;15.13;;;14.30;99.90;;;;;;5013587;28;20211;-86
2022/10/14 10:32:10;;;;;;;17.17;15.48;;;14.30;99.90;;;;;;5009121;28;20206;-86
2022/10/14 10:35:01;;;;;;;17.05;15.25;;;14.30;99.90;;;;;;4997460;28;20200;-86
2022/10/14 10:37:32;;;;;;;12.82;11.75;;;14.30;99.90;;;;;;4999625;28;20219;-85
2022/10/14 10:40:10;;;;;;;17.20;15.40;;;14.30;99.90;;;;;;5013132;28;20219;-84
2022/10/14 10:42:45;;;;;;;18.05;15.48;;;14.40;99.90;;;;;;5016991;28;20214;-84
2022/10/14 10:45:16;;;;;;;15.43;13.82;;;14.30;99.90;;;;;;5017239;28;20210;-84
2022/10/14 10:47:55;;;;;;;14.32;12.65;;;14.40;99.90;;;;;;5017054;28;20235;-84
2022/10/14 10:50:31;;;;;;;13.88;12.52;;;14.40;99.90;;;;;;5016592;28;20206;-83
2022/10/14 10:53:31;;;;;;;13.00;11.75;;;14.40;99.90;;;;;;5016472;28;20210;-83
2022/10/14 10:56:12;;;;;;;13.88;12.43;;;14.50;99.90;;;;;;5015051;28;20207;-85
2022/10/14 10:58:46;;;;;;;12.68;11.43;;;14.50;99.90;;;;;;5016257;28;20234;-85
2022/10/14 11:01:35;;;;;;;15.52;12.38;;;14.70;99.90;;;;;;5024725;28;20210;-88
2022/10/14 11:04:22;;;;;;;10.90;9.80;;;14.80;99.90;;;;;;5036421;28;20206;-85
2022/10/14 11:12:51;;;;;;;6.78;6.18;;;15.30;99.90;;;;;;5035915;28;20302;-83
2022/10/14 11:15:39;;;;;;;7.47;6.78;;;15.40;99.90;;;;;;5024305;28;20211;-83
2022/10/14 11:18:14;;;;;;;5.72;5.10;;;15.60;99.90;;;;;;5016077;28;20309;-84
2022/10/14 11:20:52;;;;;;;6.18;5.57;;;15.60;99.90;;;;;;5015563;28;20203;-83
2022/10/14 11:23:43;;;;;;;5.40;4.97;;;15.60;99.90;;;;;;5014789;28;20209;-83
2022/10/14 11:26:22;;;;;;;6.72;5.25;;;15.70;99.90;;;;;;5015605;28;20282;-86
2022/10/14 11:29:00;;;;;;;5.53;5.03;;;15.80;99.90;;;;;;5004671;28;20231;-87
2022/10/14 11:31:35;;;;;;;5.68;4.75;;;15.80;99.90;;;;;;5004339;28;20203;-86
2022/10/14 11:34:24;;;;;;;4.25;3.95;;;15.90;99.90;;;;;;5015630;28;20202;-87
2022/10/14 11:37:03;;;;;;;6.22;5.22;;;16.00;99.90;;;;;;5016108;28;20234;-86
2022/10/14 11:39:40;;;;;;;13.27;3.58;;;16.00;99.90;;;;;;5014752;28;20234;-86
2022/10/14 11:42:24;;;;;;;4.15;3.75;;;16.20;99.90;;;;;;5015133;28;20210;-86
2022/10/14 11:45:03;;;;;;;6.72;3.60;;;16.30;99.90;;;;;;4996099;28;20208;-87
2022/10/14 11:47:35;;;;;;;3.95;3.63;;;16.30;99.90;;;;;;5006600;28;20226;-87
2022/10/14 11:50:12;;;;;;;4.75;4.18;;;16.40;99.90;;;;;;5015592;28;20200;-86
2022/10/14 11:52:46;;;;;;;6.07;4.05;;;16.40;99.90;;;;;;5014206;28;20200;-86
2022/10/14 11:55:19;;;;;;;5.40;4.90;;;16.50;99.90;;;;;;4999826;28;20200;-87
2022/10/14 11:57:52;;;;;;;4.85;4.00;;;16.70;99.90;;;;;;4996235;28;20231;-90
2022/10/14 12:03:33;;;;;;;4.78;4.38;;;16.70;99.90;;;;;;5015336;28;20211;-88
2022/10/14 12:06:06;;;;;;;6.18;5.57;;;16.70;99.90;;;;;;5014713;28;20206;-87
2022/10/14 12:08:40;;;;;;;4.90;4.50;;;16.80;99.90;;;;;;5012343;28;20241;-87
2022/10/14 12:11:23;;;;;;;4.82;3.97;;;16.80;99.90;;;;;;5015367;28;20207;-87
2022/10/14 12:13:56;;;;;;;4.95;4.50;;;16.70;99.90;;;;;;5014165;28;20199;-87
2022/10/14 12:16:25;;;;;;;4.53;4.13;;;16.70;99.90;;;;;;5014783;28;20199;-88
2022/10/14 12:18:56;;;;;;;4.47;4.10;;;16.70;99.90;;;;;;5014931;28;20230;-88
2022/10/14 12:21:31;;;;;;;5.13;4.57;;;16.70;99.90;;;;;;5015079;28;20203;-88
2022/10/14 12:24:05;;;;;;;5.10;4.60;;;16.70;99.90;;;;;;5015364;28;20202;-87
2022/10/14 12:26:52;;;;;;;5.70;5.20;;;16.70;99.90;;;;;;5014515;28;20199;-88
2022/10/14 12:29:26;;;;;;;5.00;4.60;;;16.70;99.90;;;;;;4995522;28;20204;-87
2022/10/14 12:32:19;;;;;;;5.00;4.50;;;16.80;99.90;;;;;;5007144;28;20286;-88
2022/10/14 12:34:49;;;;;;;5.28;4.82;;;16.80;99.90;;;;;;5014636;28;20204;-87
2022/10/14 12:37:53;;;;;;;5.97;5.10;;;16.90;99.90;;;;;;5015242;28;20230;-87
2022/10/14 12:40:29;;;;;;;5.10;4.57;;;16.90;99.90;;;;;;5014340;28;20237;-88
2022/10/14 12:43:22;;;;;;;4.20;3.88;;;16.90;99.90;;;;;;5014868;28;20221;-88
2022/10/14 12:46:16;;;;;;;4.28;3.88;;;16.90;99.90;;;;;;5014245;28;20286;-88
2022/10/14 12:48:49;;;;;;;3.63;3.33;;;16.90;99.90;;;;;;5014469;28;20227;-88
2022/10/14 12:51:20;;;;;;;3.50;3.20;;;17.00;99.90;;;;;;5014348;28;20199;-88
2022/10/14 12:53:53;;;;;;;3.58;3.28;;;17.00;99.90;;;;;;5014623;28;20210;-84
2022/10/14 12:56:43;;;;;;;4.13;3.33;;;17.00;99.90;;;;;;5014295;28;20210;-84
2022/10/14 12:59:24;;;;;;;3.95;3.55;;;17.00;99.90;;;;;;5013903;28;20228;-84
2022/10/14 13:01:58;;;;;;;3.28;2.97;;;17.00;99.90;;;;;;4994788;28;20239;-84
2022/10/14 13:04:26;;;;;;;2.28;2.10;;;17.00;99.90;;;;;;4994764;28;20280;-84
2022/10/14 13:07:38;;;;;;;2.38;2.17;;;17.00;99.90;;;;;;5010974;28;20233;-84